Time;durP1;ratioP1;P1;durP2;ratioP2;P2;SDS_P1;SDS_P2;PMS_P1;PMS_P2;Temp;Humidity;BMP_temperature;BMP_pressure;BME280_temperature;BME280_humidity;BME280_pressure;Samples;Min_cycle;Max_cycle;Signal;HPM_P1;HPM_P2
2022/09/10 00:00:38;;;;;;;1.60;1.17;;;16.10;99.90;;;;;;5049546;28;20746;-70
2022/09/10 00:03:04;;;;;;;7.80;1.37;;;16.10;99.90;;;;;;5053926;28;20583;-68
2022/09/10 00:05:41;;;;;;;2.30;1.50;;;16.10;99.90;;;;;;5047147;28;21000;-69
2022/09/10 00:08:08;;;;;;;1.47;1.37;;;16.10;99.90;;;;;;5052018;28;20475;-70
2022/09/10 00:10:42;;;;;;;7.30;1.73;;;16.10;99.90;;;;;;5042644;28;20450;-69
2022/09/10 00:13:08;;;;;;;1.27;0.93;;;16.10;99.90;;;;;;5044752;28;20475;-70
2022/09/10 00:15:45;;;;;;;2.63;1.63;;;16.10;99.90;;;;;;5043165;28;20458;-68
2022/09/10 00:18:12;;;;;;;1.40;1.30;;;16.10;99.90;;;;;;5049641;28;20470;-70
2022/09/10 00:20:47;;;;;;;2.77;1.50;;;16.10;99.90;;;;;;5035603;28;20447;-69
2022/09/10 00:23:14;;;;;;;3.40;2.13;;;16.10;99.90;;;;;;5022938;28;20494;-71
2022/09/10 00:25:39;;;;;;;1.23;1.07;;;16.10;99.90;;;;;;5041958;28;20463;-69
2022/09/10 00:28:07;;;;;;;3.33;1.30;;;16.10;99.90;;;;;;5055994;28;20469;-70
2022/09/10 00:30:33;;;;;;;1.53;1.20;;;16.10;99.90;;;;;;5034398;28;20234;-70
2022/09/10 00:32:59;;;;;;;2.30;1.43;;;16.10;99.90;;;;;;5044649;28;20455;-69
2022/09/10 00:35:25;;;;;;;2.40;1.40;;;16.10;99.90;;;;;;5038473;28;21005;-69
2022/09/10 00:37:50;;;;;;;1.40;1.30;;;16.00;99.90;;;;;;5044067;28;20224;-71
2022/09/10 00:40:18;;;;;;;4.13;1.80;;;16.00;99.90;;;;;;5042082;28;20240;-70
2022/09/10 00:42:44;;;;;;;1.67;1.57;;;16.00;99.90;;;;;;5034281;28;20226;-70
2022/09/10 00:45:22;;;;;;;5.53;1.60;;;16.00;99.90;;;;;;5059703;28;20451;-69
2022/09/10 00:47:50;;;;;;;1.50;1.40;;;16.00;99.90;;;;;;5046771;28;20226;-69
2022/09/10 00:50:22;;;;;;;2.10;1.90;;;16.10;99.90;;;;;;5039587;28;20453;-68
2022/09/10 00:52:51;;;;;;;1.67;1.53;;;16.10;99.90;;;;;;5031019;28;20499;-69
2022/09/10 00:55:19;;;;;;;3.07;2.17;;;16.10;99.90;;;;;;5042133;28;20501;-68
2022/09/10 00:57:48;;;;;;;1.60;1.50;;;16.10;99.90;;;;;;5057767;28;20443;-69
2022/09/10 01:00:15;;;;;;;1.73;1.63;;;16.10;99.90;;;;;;5028892;28;20452;-70
2022/09/10 01:02:42;;;;;;;2.30;1.50;;;16.10;99.90;;;;;;5042766;28;21042;-69
2022/09/10 01:05:09;;;;;;;2.27;1.60;;;16.10;99.90;;;;;;5039433;28;20450;-68
2022/09/10 01:07:35;;;;;;;1.90;1.80;;;16.10;99.90;;;;;;5029032;28;20446;-68
2022/09/10 01:10:11;;;;;;;1.80;1.70;;;16.10;99.90;;;;;;5058590;28;20530;-69
2022/09/10 01:12:49;;;;;;;1.20;1.20;;;16.10;99.90;;;;;;5042812;28;20557;-69
2022/09/10 01:15:52;;;;;;;2.30;1.70;;;16.10;99.90;;;;;;5046723;28;20442;-68
2022/09/10 01:18:43;;;;;;;1.53;1.43;;;16.10;99.90;;;;;;5028711;28;20451;-69
2022/09/10 01:21:09;;;;;;;1.77;1.67;;;16.10;99.90;;;;;;5054540;28;20459;-69
2022/09/10 01:24:28;;;;;;;2.87;2.20;;;16.10;99.90;;;;;;5060125;28;21004;-67
2022/09/10 01:27:22;;;;;;;1.70;1.60;;;16.10;99.90;;;;;;5026846;28;20229;-69
2022/09/10 01:30:19;;;;;;;1.67;1.57;;;16.10;99.90;;;;;;5052141;28;20450;-70
2022/09/10 01:32:53;;;;;;;2.03;1.50;;;16.10;99.90;;;;;;5028235;28;20547;-70
2022/09/10 01:35:35;;;;;;;2.73;2.00;;;16.00;99.90;;;;;;5043576;28;20457;-68
2022/09/10 01:38:05;;;;;;;3.80;1.73;;;16.00;99.90;;;;;;5046887;28;20458;-69
2022/09/10 01:40:33;;;;;;;3.20;1.77;;;16.00;99.90;;;;;;5031359;28;20450;-69
2022/09/10 01:43:06;;;;;;;2.40;2.20;;;16.00;99.90;;;;;;5059833;28;20521;-70
2022/09/10 01:45:58;;;;;;;2.20;2.00;;;16.00;99.90;;;;;;5030046;28;20522;-70
2022/09/10 01:48:54;;;;;;;1.93;1.73;;;16.00;99.90;;;;;;5038600;28;20455;-69
2022/09/10 01:51:50;;;;;;;2.00;1.90;;;16.00;99.90;;;;;;5029942;28;20443;-69
2022/09/10 01:54:25;;;;;;;3.73;2.60;;;16.00;99.90;;;;;;5045751;28;20470;-69
2022/09/10 01:57:22;;;;;;;2.00;1.90;;;15.90;99.90;;;;;;5029520;28;20876;-70
2022/09/10 02:00:13;;;;;;;2.93;2.57;;;15.90;99.90;;;;;;5055308;28;20462;-70
2022/09/10 02:02:42;;;;;;;2.93;2.67;;;15.90;99.90;;;;;;5042122;28;20478;-70
2022/09/10 02:05:10;;;;;;;2.33;2.13;;;15.70;99.90;;;;;;5033642;28;20960;-68
2022/09/10 02:07:38;;;;;;;5.57;2.67;;;15.70;99.90;;;;;;5034241;28;20449;-69
2022/09/10 02:10:08;;;;;;;6.20;2.90;;;15.60;99.90;;;;;;5067363;28;20446;-70
2022/09/10 02:12:40;;;;;;;2.60;2.40;;;15.70;99.90;;;;;;5050820;28;20466;-70
2022/09/10 02:15:27;;;;;;;2.10;2.00;;;15.60;99.90;;;;;;5058646;28;20460;-68
2022/09/10 02:18:14;;;;;;;2.40;2.20;;;15.60;99.90;;;;;;5071549;28;20484;-70
2022/09/10 02:20:40;;;;;;;3.47;2.30;;;15.60;99.90;;;;;;5039322;28;20458;-68
2022/09/10 02:23:08;;;;;;;3.03;2.30;;;15.60;99.90;;;;;;5048307;28;20575;-69
2022/09/10 02:25:36;;;;;;;2.93;2.67;;;15.60;99.90;;;;;;5041779;28;20450;-67
2022/09/10 02:28:04;;;;;;;2.83;2.50;;;15.50;99.90;;;;;;5051133;28;20443;-70
2022/09/10 02:30:31;;;;;;;3.37;2.60;;;15.50;99.90;;;;;;5043855;28;20462;-68
2022/09/10 02:32:57;;;;;;;2.90;2.67;;;15.50;99.90;;;;;;5035577;28;20474;-68
2022/09/10 02:35:23;;;;;;;2.53;2.33;;;15.50;99.90;;;;;;5031976;28;20224;-68
2022/09/10 02:37:49;;;;;;;6.00;2.77;;;15.50;99.90;;;;;;5032541;28;20452;-68
2022/09/10 02:40:18;;;;;;;9.17;2.90;;;15.50;99.90;;;;;;5050621;28;20231;-69
2022/09/10 02:42:45;;;;;;;4.00;3.60;;;15.40;99.90;;;;;;5060967;28;20439;-68
2022/09/10 02:45:12;;;;;;;3.20;2.90;;;15.50;99.90;;;;;;5050164;28;20454;-68
2022/09/10 02:47:38;;;;;;;3.27;2.97;;;15.40;99.90;;;;;;5049661;28;20512;-71
2022/09/10 02:50:06;;;;;;;3.33;3.03;;;15.40;99.90;;;;;;5031429;28;20534;-70
2022/09/10 02:52:33;;;;;;;4.43;3.20;;;15.40;99.90;;;;;;5048752;28;20474;-69
2022/09/10 02:54:59;;;;;;;5.80;4.10;;;15.40;99.90;;;;;;5049335;28;20458;-70
2022/09/10 02:57:26;;;;;;;4.60;3.20;;;15.40;99.90;;;;;;5050056;28;20474;-69
2022/09/10 02:59:55;;;;;;;3.40;3.10;;;15.40;99.90;;;;;;5033091;28;20449;-69
2022/09/10 03:02:21;;;;;;;3.70;2.87;;;15.40;99.90;;;;;;5043775;28;20453;-69
2022/09/10 03:04:47;;;;;;;5.13;3.30;;;15.40;99.90;;;;;;5049015;28;20451;-70
2022/09/10 03:07:18;;;;;;;3.80;3.33;;;15.40;99.90;;;;;;5033303;28;20241;-70
2022/09/10 03:09:45;;;;;;;6.13;3.97;;;15.40;99.90;;;;;;5049326;28;20214;-71
2022/09/10 03:12:12;;;;;;;3.97;2.90;;;15.40;99.90;;;;;;5045941;28;21009;-70
2022/09/10 03:14:38;;;;;;;7.40;3.43;;;15.40;99.90;;;;;;5052272;28;21041;-68
2022/09/10 03:17:04;;;;;;;3.73;3.43;;;15.40;99.90;;;;;;5033179;28;20530;-70
2022/09/10 03:19:30;;;;;;;4.30;3.30;;;15.40;99.90;;;;;;5045400;28;20307;-70
2022/09/10 03:21:57;;;;;;;3.60;3.30;;;15.40;99.90;;;;;;5048853;28;20509;-70
2022/09/10 03:24:24;;;;;;;3.60;3.17;;;15.40;99.90;;;;;;5033204;28;20486;-70
2022/09/10 03:26:50;;;;;;;4.70;3.40;;;15.40;99.90;;;;;;5033054;28;20289;-70
2022/09/10 03:29:16;;;;;;;4.00;3.70;;;15.40;99.90;;;;;;5049957;28;20836;-71
2022/09/10 03:31:43;;;;;;;4.60;3.40;;;15.40;99.90;;;;;;5038401;28;20455;-68
2022/09/10 03:34:11;;;;;;;3.93;3.17;;;15.50;99.90;;;;;;5060318;28;20486;-70
2022/09/10 03:36:37;;;;;;;3.40;3.17;;;15.50;99.90;;;;;;5048993;28;20465;-70
2022/09/10 03:39:05;;;;;;;6.10;3.57;;;15.50;99.90;;;;;;5048999;28;20446;-69
2022/09/10 03:41:31;;;;;;;6.97;3.53;;;15.50;99.90;;;;;;5048240;28;20465;-70
2022/09/10 03:43:58;;;;;;;3.60;3.20;;;15.50;99.90;;;;;;5031445;28;20223;-68
2022/09/10 03:46:25;;;;;;;3.20;3.00;;;15.50;99.90;;;;;;5032897;28;20450;-70
2022/09/10 03:48:51;;;;;;;3.50;3.20;;;15.50;99.90;;;;;;5039221;28;20454;-71
2022/09/10 03:51:22;;;;;;;6.90;3.60;;;15.50;99.90;;;;;;5045173;28;20535;-70
2022/09/10 03:53:47;;;;;;;5.13;3.53;;;15.50;99.90;;;;;;5045420;28;20505;-71
2022/09/10 03:56:18;;;;;;;4.23;3.10;;;15.50;99.90;;;;;;5047060;28;20451;-69
2022/09/10 03:58:45;;;;;;;3.93;3.53;;;15.50;99.90;;;;;;5029003;28;20489;-69
2022/09/10 04:01:10;;;;;;;2.90;2.60;;;15.50;99.90;;;;;;5056112;28;20536;-70
2022/09/10 04:03:41;;;;;;;2.90;2.63;;;15.50;99.90;;;;;;5028832;28;20854;-70
2022/09/10 04:06:11;;;;;;;3.47;3.17;;;15.50;99.90;;;;;;5063390;28;20454;-70
2022/09/10 04:08:37;;;;;;;6.27;2.83;;;15.50;99.90;;;;;;5028772;28;20458;-69
2022/09/10 04:11:05;;;;;;;7.50;3.47;;;15.50;99.90;;;;;;5025337;28;20455;-68
2022/09/10 04:13:31;;;;;;;3.13;2.90;;;15.50;99.90;;;;;;5044959;28;20829;-69
2022/09/10 04:16:01;;;;;;;4.00;3.30;;;15.50;99.90;;;;;;5028223;28;20220;-69
2022/09/10 04:18:28;;;;;;;4.63;3.63;;;15.50;99.90;;;;;;5028394;28;20466;-70
2022/09/10 04:20:55;;;;;;;4.70;3.27;;;15.60;99.90;;;;;;5029050;28;20466;-70
2022/09/10 04:23:21;;;;;;;3.17;2.93;;;15.60;99.90;;;;;;5046086;28;20517;-69
2022/09/10 04:25:48;;;;;;;5.90;3.87;;;15.60;99.90;;;;;;5045396;28;20573;-71
2022/09/10 04:28:14;;;;;;;3.00;2.80;;;15.60;99.90;;;;;;5052033;28;20465;-70
2022/09/10 04:30:43;;;;;;;3.30;3.00;;;15.70;99.90;;;;;;5025432;28;20470;-70
2022/09/10 04:33:10;;;;;;;3.80;3.50;;;15.70;99.90;;;;;;5043797;28;20467;-71
2022/09/10 04:35:38;;;;;;;5.53;3.53;;;15.70;99.90;;;;;;5042285;28;20447;-70
2022/09/10 04:38:05;;;;;;;3.77;3.00;;;15.70;99.90;;;;;;5037982;28;20462;-70
2022/09/10 04:40:33;;;;;;;2.90;2.70;;;15.70;99.90;;;;;;5045944;28;20532;-69
2022/09/10 04:43:00;;;;;;;2.50;2.30;;;15.70;99.90;;;;;;5027284;28;20457;-70
2022/09/10 04:45:26;;;;;;;3.83;2.53;;;15.60;99.90;;;;;;5057681;28;20461;-70
2022/09/10 04:47:53;;;;;;;2.83;2.63;;;15.70;99.90;;;;;;5039991;28;20462;-70
2022/09/10 04:50:20;;;;;;;4.17;3.43;;;15.70;99.90;;;;;;5042512;28;20220;-70
2022/09/10 04:53:06;;;;;;;3.73;3.30;;;15.70;99.90;;;;;;5035987;28;20908;-69
2022/09/10 04:55:33;;;;;;;4.70;3.47;;;15.70;99.90;;;;;;5041592;28;20478;-70
2022/09/10 04:57:59;;;;;;;3.57;3.27;;;15.70;99.90;;;;;;5052117;28;20523;-69
2022/09/10 05:00:25;;;;;;;3.57;3.27;;;15.70;99.90;;;;;;5040691;28;20458;-70
2022/09/10 05:02:52;;;;;;;3.30;3.10;;;15.70;99.90;;;;;;5016471;28;20450;-68
2022/09/10 05:05:17;;;;;;;2.80;2.60;;;15.70;99.90;;;;;;5037131;28;20459;-70
2022/09/10 05:07:43;;;;;;;3.07;2.87;;;15.80;99.90;;;;;;5043667;28;20207;-69
2022/09/10 05:10:09;;;;;;;3.33;3.00;;;15.80;99.90;;;;;;5041088;28;20218;-70
2022/09/10 05:12:37;;;;;;;4.50;3.13;;;15.80;99.90;;;;;;5028213;28;20451;-69
2022/09/10 05:15:05;;;;;;;3.43;3.13;;;15.80;99.90;;;;;;5022012;28;20212;-70
2022/09/10 05:17:32;;;;;;;2.80;2.60;;;15.80;99.90;;;;;;5040527;28;21015;-70
2022/09/10 05:19:58;;;;;;;4.43;3.07;;;15.80;99.90;;;;;;5031374;28;20463;-71
2022/09/10 05:22:24;;;;;;;3.47;3.20;;;15.80;99.90;;;;;;5038746;28;20529;-70
2022/09/10 05:24:50;;;;;;;3.60;2.87;;;15.80;99.90;;;;;;5038902;28;20458;-71
2022/09/10 05:27:16;;;;;;;4.37;2.53;;;15.80;99.90;;;;;;5034992;28;20476;-71
2022/09/10 05:29:42;;;;;;;2.97;2.70;;;15.80;99.90;;;;;;5019259;28;20334;-69
2022/09/10 05:32:09;;;;;;;2.30;2.10;;;15.80;99.90;;;;;;5025792;28;20541;-71
2022/09/10 05:34:35;;;;;;;5.63;2.70;;;15.80;99.90;;;;;;5029265;28;20479;-70
2022/09/10 05:37:01;;;;;;;2.70;2.50;;;15.80;99.90;;;;;;5037513;28;20221;-71
2022/09/10 05:39:26;;;;;;;2.63;2.23;;;15.70;99.90;;;;;;5033640;28;20840;-69
2022/09/10 05:41:54;;;;;;;2.60;2.40;;;15.70;99.90;;;;;;5041484;28;20211;-69
2022/09/10 05:44:20;;;;;;;3.47;2.23;;;15.70;99.90;;;;;;5023010;28;20780;-70
2022/09/10 05:46:47;;;;;;;2.47;2.30;;;15.70;99.90;;;;;;5025557;28;20455;-70
2022/09/10 05:49:14;;;;;;;2.37;2.17;;;15.70;99.90;;;;;;5045039;28;20462;-70
2022/09/10 05:51:40;;;;;;;3.33;2.97;;;15.70;99.90;;;;;;5049736;28;20454;-70
2022/09/10 05:54:07;;;;;;;2.07;1.97;;;15.70;99.90;;;;;;5035838;28;20470;-71
2022/09/10 05:56:33;;;;;;;2.50;2.00;;;15.60;99.90;;;;;;5039236;28;20461;-70
2022/09/10 05:59:00;;;;;;;4.07;2.10;;;15.60;99.90;;;;;;5042789;28;20916;-71
2022/09/10 06:01:25;;;;;;;2.70;2.60;;;15.70;99.90;;;;;;5029821;28;20474;-70
2022/09/10 06:03:52;;;;;;;4.87;2.30;;;15.70;99.90;;;;;;5021803;28;20225;-70
2022/09/10 06:06:18;;;;;;;2.70;2.33;;;15.70;99.90;;;;;;5045303;28;20981;-71
2022/09/10 06:08:52;;;;;;;2.77;2.57;;;15.60;99.90;;;;;;5027527;28;20215;-70
2022/09/10 06:11:30;;;;;;;2.23;2.03;;;15.70;99.90;;;;;;5039410;28;20467;-71
2022/09/10 06:13:56;;;;;;;3.07;2.10;;;15.60;99.90;;;;;;5041837;28;20477;-71
2022/09/10 06:16:22;;;;;;;2.90;2.20;;;15.60;99.90;;;;;;5042079;28;20275;-69
2022/09/10 06:18:48;;;;;;;2.90;2.00;;;15.60;99.90;;;;;;5029811;28;20463;-70
2022/09/10 06:21:17;;;;;;;2.23;1.90;;;15.60;99.90;;;;;;5034518;28;20459;-70
2022/09/10 06:23:46;;;;;;;1.87;1.77;;;15.60;99.90;;;;;;5006977;28;20557;-71
2022/09/10 06:26:17;;;;;;;2.83;2.30;;;15.60;99.90;;;;;;5041320;28;20463;-70
2022/09/10 06:28:43;;;;;;;1.83;1.67;;;15.60;99.90;;;;;;5027742;28;20466;-70
2022/09/10 06:31:15;;;;;;;3.00;2.20;;;15.60;99.90;;;;;;5043910;28;20486;-70
2022/09/10 06:33:43;;;;;;;2.00;1.80;;;15.70;99.90;;;;;;5041749;28;20470;-68
2022/09/10 06:36:12;;;;;;;1.70;1.60;;;15.70;99.90;;;;;;5023365;28;20467;-69
2022/09/10 06:38:39;;;;;;;3.13;2.07;;;15.60;99.90;;;;;;5027413;28;20561;-70
2022/09/10 06:41:10;;;;;;;1.80;1.70;;;15.70;99.90;;;;;;5043821;28;20466;-71
2022/09/10 06:43:42;;;;;;;2.03;1.93;;;15.70;99.90;;;;;;5049943;28;20497;-69
2022/09/10 06:46:18;;;;;;;1.63;1.53;;;15.70;99.90;;;;;;5044787;28;20466;-70
2022/09/10 06:48:51;;;;;;;1.67;1.57;;;15.70;99.90;;;;;;5022278;28;20539;-70
2022/09/10 06:51:18;;;;;;;2.83;1.50;;;15.70;99.90;;;;;;5040602;28;20465;-70
2022/09/10 06:53:47;;;;;;;2.50;1.57;;;15.70;99.90;;;;;;5027407;28;20516;-70
2022/09/10 06:56:17;;;;;;;3.17;1.90;;;15.80;99.90;;;;;;5030689;28;20525;-70
2022/09/10 06:58:44;;;;;;;1.80;1.57;;;15.80;99.90;;;;;;5020396;28;20455;-70
2022/09/10 07:01:24;;;;;;;1.30;1.13;;;15.80;99.90;;;;;;5041508;28;20455;-70
2022/09/10 07:03:58;;;;;;;2.90;1.50;;;15.80;99.90;;;;;;5036650;28;21032;-71
2022/09/10 07:06:26;;;;;;;3.07;1.40;;;15.90;99.90;;;;;;5058207;28;20536;-69
2022/09/10 07:08:57;;;;;;;1.97;1.70;;;15.90;99.90;;;;;;5040408;28;20458;-71
2022/09/10 07:11:31;;;;;;;1.90;1.80;;;15.90;99.90;;;;;;5043314;28;20454;-70
2022/09/10 07:14:00;;;;;;;1.60;1.50;;;15.90;99.90;;;;;;5040492;28;20476;-70
2022/09/10 07:16:29;;;;;;;2.10;1.90;;;16.00;99.90;;;;;;5042538;28;20458;-70
2022/09/10 07:18:57;;;;;;;1.77;1.67;;;16.00;99.90;;;;;;5036784;28;20462;-70
2022/09/10 07:21:31;;;;;;;1.90;1.60;;;16.10;99.90;;;;;;5041265;28;20226;-70
2022/09/10 07:24:00;;;;;;;1.83;1.73;;;16.10;99.90;;;;;;5026681;28;20455;-71
2022/09/10 07:26:26;;;;;;;4.97;2.13;;;16.10;99.90;;;;;;5025566;28;20468;-70
2022/09/10 07:28:53;;;;;;;2.80;2.30;;;16.10;99.90;;;;;;5024222;28;20220;-71
2022/09/10 07:31:22;;;;;;;2.33;2.13;;;16.20;99.90;;;;;;5038194;28;20454;-70
2022/09/10 07:33:49;;;;;;;7.83;2.80;;;16.20;99.90;;;;;;5053998;28;20895;-70
2022/09/10 07:36:17;;;;;;;3.57;2.30;;;16.30;99.90;;;;;;5037104;28;20463;-70
2022/09/10 07:38:45;;;;;;;3.60;2.73;;;16.30;99.90;;;;;;5022001;28;20459;-71
2022/09/10 07:41:14;;;;;;;4.30;1.93;;;16.30;99.90;;;;;;5042212;28;20499;-69
2022/09/10 07:43:42;;;;;;;2.50;2.30;;;16.40;99.90;;;;;;5056410;28;20458;-71
2022/09/10 07:46:19;;;;;;;3.83;3.50;;;16.40;99.90;;;;;;5030513;28;20490;-71
2022/09/10 07:48:55;;;;;;;3.37;2.90;;;16.40;99.90;;;;;;5033282;28;20454;-70
2022/09/10 07:51:22;;;;;;;2.53;2.33;;;16.40;99.90;;;;;;5040857;28;20553;-70
2022/09/10 07:53:53;;;;;;;4.97;2.67;;;16.50;99.90;;;;;;5019024;28;20475;-70
2022/09/10 07:56:21;;;;;;;4.30;3.13;;;16.50;99.90;;;;;;5058021;28;20823;-71
2022/09/10 07:58:48;;;;;;;2.60;2.40;;;16.50;99.90;;;;;;5040327;28;20458;-70
2022/09/10 08:01:14;;;;;;;4.00;2.50;;;16.60;99.90;;;;;;5052703;28;20457;-72
2022/09/10 08:03:41;;;;;;;2.83;2.57;;;16.60;99.90;;;;;;5038829;28;20489;-69
2022/09/10 08:06:09;;;;;;;3.17;2.50;;;16.60;99.90;;;;;;5025715;28;20454;-69
2022/09/10 08:08:38;;;;;;;4.50;2.83;;;16.60;99.90;;;;;;5040762;28;20454;-69
2022/09/10 08:11:13;;;;;;;5.17;3.43;;;16.60;99.90;;;;;;5023637;28;20458;-70
2022/09/10 08:13:44;;;;;;;4.93;2.60;;;16.60;99.90;;;;;;5031427;28;20473;-70
2022/09/10 08:16:13;;;;;;;6.10;3.47;;;16.60;99.90;;;;;;5037632;28;20450;-70
2022/09/10 08:18:40;;;;;;;5.90;3.40;;;16.60;99.90;;;;;;5022120;28;20463;-71
2022/09/10 08:21:09;;;;;;;3.67;3.23;;;16.60;99.90;;;;;;5040695;28;20465;-70
2022/09/10 08:23:38;;;;;;;4.90;2.70;;;16.60;99.90;;;;;;5037214;28;20517;-70
2022/09/10 08:26:06;;;;;;;5.13;3.70;;;16.60;99.90;;;;;;5029496;28;20512;-70
2022/09/10 08:28:33;;;;;;;3.73;3.10;;;16.70;99.90;;;;;;5041748;28;20451;-69
2022/09/10 08:31:02;;;;;;;3.27;2.83;;;16.70;99.90;;;;;;5036740;28;20826;-70
2022/09/10 08:33:31;;;;;;;3.03;2.80;;;16.70;99.90;;;;;;5027041;28;20499;-69
2022/09/10 08:35:58;;;;;;;3.00;2.80;;;16.70;99.90;;;;;;5030539;28;20467;-68
2022/09/10 08:38:41;;;;;;;3.50;2.60;;;16.80;99.90;;;;;;5040388;28;20253;-69
2022/09/10 08:41:34;;;;;;;8.53;2.80;;;16.80;99.90;;;;;;5032197;28;21042;-72
2022/09/10 08:44:26;;;;;;;8.50;3.27;;;16.80;99.90;;;;;;5034922;28;20474;-70
2022/09/10 08:47:11;;;;;;;4.70;3.13;;;16.80;99.90;;;;;;5034008;28;21049;-70
2022/09/10 08:49:47;;;;;;;5.70;2.50;;;16.80;99.90;;;;;;5050098;28;21003;-70
2022/09/10 08:52:34;;;;;;;3.17;2.90;;;16.80;99.90;;;;;;5030018;28;20519;-71
2022/09/10 08:55:16;;;;;;;4.20;2.33;;;16.90;99.90;;;;;;5022005;28;21090;-69
2022/09/10 08:57:47;;;;;;;3.20;2.90;;;16.90;99.90;;;;;;5039668;28;20454;-71
2022/09/10 09:00:22;;;;;;;3.67;3.00;;;16.90;99.90;;;;;;5041429;28;20486;-70
2022/09/10 09:02:58;;;;;;;3.80;2.30;;;16.80;99.90;;;;;;5015011;28;20536;-71
2022/09/10 09:05:25;;;;;;;3.40;3.10;;;16.90;99.90;;;;;;5053727;28;20461;-70
2022/09/10 09:07:54;;;;;;;3.33;2.40;;;16.90;99.90;;;;;;5038571;28;20454;-70
2022/09/10 09:10:47;;;;;;;4.00;2.10;;;16.90;99.90;;;;;;5043427;28;20465;-71
2022/09/10 09:13:28;;;;;;;4.63;2.70;;;16.90;99.90;;;;;;5040587;28;20830;-69
2022/09/10 09:16:13;;;;;;;8.80;2.77;;;16.90;99.90;;;;;;5042111;28;20450;-70
2022/09/10 09:19:02;;;;;;;3.30;3.10;;;16.90;99.90;;;;;;5025706;28;20463;-71
2022/09/10 09:21:35;;;;;;;7.07;2.57;;;17.00;99.90;;;;;;5029537;28;20455;-70
2022/09/10 09:24:08;;;;;;;2.33;2.13;;;17.00;99.90;;;;;;5040236;28;20482;-71
2022/09/10 09:26:35;;;;;;;6.97;2.27;;;17.00;99.90;;;;;;5028109;28;21066;-71
2022/09/10 09:29:33;;;;;;;4.00;2.50;;;17.00;99.90;;;;;;5028548;28;21004;-70
2022/09/10 09:32:04;;;;;;;2.00;1.80;;;17.00;99.90;;;;;;5025778;28;20504;-71
2022/09/10 09:35:01;;;;;;;2.80;1.80;;;17.00;99.90;;;;;;5028551;28;20470;-70
2022/09/10 09:37:30;;;;;;;2.53;1.97;;;17.00;99.90;;;;;;5035360;28;20458;-69
2022/09/10 09:40:25;;;;;;;5.03;2.50;;;16.90;99.90;;;;;;5027210;28;20466;-70
2022/09/10 09:43:11;;;;;;;4.97;2.20;;;16.90;99.90;;;;;;5038275;28;20458;-69
2022/09/10 09:45:42;;;;;;;5.93;2.20;;;16.90;99.90;;;;;;5037649;28;20446;-70
2022/09/10 09:48:15;;;;;;;2.83;2.53;;;16.90;99.90;;;;;;5026608;28;20910;-70
2022/09/10 09:50:46;;;;;;;2.00;1.57;;;16.90;99.90;;;;;;5044836;28;20542;-70
2022/09/10 09:53:24;;;;;;;4.97;2.00;;;17.00;99.90;;;;;;5031750;28;20486;-71
2022/09/10 09:55:58;;;;;;;2.20;1.97;;;17.00;99.90;;;;;;5046619;28;20511;-70
2022/09/10 09:58:25;;;;;;;2.97;1.90;;;17.00;99.90;;;;;;5048463;28;20461;-71
2022/09/10 10:01:04;;;;;;;2.83;2.23;;;17.00;99.90;;;;;;5047644;28;20461;-71
2022/09/10 10:03:34;;;;;;;1.50;1.40;;;17.00;99.90;;;;;;5053902;28;20952;-71
2022/09/10 10:06:01;;;;;;;6.13;1.90;;;17.00;99.90;;;;;;5030171;28;20453;-71
2022/09/10 10:08:30;;;;;;;2.27;1.87;;;17.00;99.90;;;;;;5029807;28;20463;-70
2022/09/10 10:10:57;;;;;;;4.93;2.40;;;17.00;99.90;;;;;;5047564;28;20460;-69
2022/09/10 10:13:23;;;;;;;7.93;2.30;;;17.00;99.90;;;;;;5040639;28;20505;-69
2022/09/10 10:15:49;;;;;;;2.53;2.33;;;17.10;99.90;;;;;;5041943;28;20546;-71
2022/09/10 10:18:21;;;;;;;3.73;2.87;;;17.10;99.90;;;;;;5046357;28;20468;-69
2022/09/10 10:20:48;;;;;;;3.33;2.53;;;17.20;99.90;;;;;;5039706;28;20455;-69
2022/09/10 10:23:36;;;;;;;3.40;3.20;;;17.30;99.90;;;;;;5027740;28;20926;-71
2022/09/10 10:26:20;;;;;;;2.80;2.60;;;17.30;99.90;;;;;;5026896;28;20455;-71
2022/09/10 10:28:58;;;;;;;4.17;3.37;;;17.30;99.90;;;;;;5060466;28;20458;-71
2022/09/10 10:31:46;;;;;;;3.57;2.53;;;17.40;99.90;;;;;;5046780;28;20463;-70
2022/09/10 10:34:37;;;;;;;2.57;2.37;;;17.40;99.90;;;;;;5020712;28;20478;-70
2022/09/10 10:37:20;;;;;;;3.60;2.27;;;17.40;99.90;;;;;;5042342;28;20456;-69
2022/09/10 10:40:11;;;;;;;2.07;1.87;;;17.50;99.90;;;;;;5027344;28;20469;-70
2022/09/10 10:43:07;;;;;;;5.43;1.93;;;17.60;99.90;;;;;;5027207;28;20459;-70
2022/09/10 10:46:00;;;;;;;2.20;2.00;;;17.70;99.90;;;;;;5027367;28;20450;-71
2022/09/10 10:48:47;;;;;;;2.20;2.00;;;17.70;99.90;;;;;;5046856;28;20458;-70
2022/09/10 10:51:43;;;;;;;1.47;1.37;;;17.80;99.90;;;;;;5040344;28;20980;-71
2022/09/10 10:54:30;;;;;;;3.70;1.60;;;18.00;99.90;;;;;;5034661;28;20475;-71
2022/09/10 10:57:17;;;;;;;1.83;1.37;;;18.10;99.90;;;;;;5043723;28;20454;-70
2022/09/10 11:00:06;;;;;;;2.00;1.70;;;18.20;99.90;;;;;;5044581;28;20466;-69
2022/09/10 11:02:58;;;;;;;1.27;1.23;;;18.30;99.90;;;;;;5044140;28;21039;-69
2022/09/10 11:05:30;;;;;;;1.40;1.30;;;18.40;99.90;;;;;;5046280;28;20451;-71
2022/09/10 11:08:04;;;;;;;1.53;1.43;;;18.50;99.90;;;;;;5045165;28;20530;-69
2022/09/10 11:10:45;;;;;;;3.23;1.17;;;18.50;99.90;;;;;;5047121;28;20473;-70
2022/09/10 11:13:32;;;;;;;1.13;1.00;;;18.60;99.90;;;;;;5045076;28;20501;-70
2022/09/10 11:16:13;;;;;;;1.63;1.17;;;18.60;99.90;;;;;;5026356;28;20539;-70
2022/09/10 11:18:45;;;;;;;1.30;1.20;;;18.80;99.90;;;;;;5052681;28;20520;-69
2022/09/10 11:21:16;;;;;;;1.10;1.10;;;18.90;99.90;;;;;;5046072;28;20465;-70
2022/09/10 11:24:14;;;;;;;0.83;0.83;;;18.90;99.90;;;;;;5019428;28;20463;-70
2022/09/10 11:26:58;;;;;;;1.27;1.00;;;18.90;99.90;;;;;;5043437;28;20966;-70
2022/09/10 11:29:38;;;;;;;1.03;1.03;;;18.90;99.90;;;;;;5035755;28;20517;-70
2022/09/10 11:32:05;;;;;;;0.90;0.90;;;19.00;99.90;;;;;;5035296;28;20462;-71
2022/09/10 11:34:52;;;;;;;1.93;1.13;;;19.10;99.90;;;;;;5032941;28;21005;-68
2022/09/10 11:37:53;;;;;;;1.77;1.30;;;19.20;99.90;;;;;;5037198;28;20557;-71
2022/09/10 11:40:29;;;;;;;5.13;1.30;;;19.30;99.90;;;;;;5051574;28;20462;-71
2022/09/10 11:43:01;;;;;;;1.20;1.10;;;19.40;99.90;;;;;;5034239;28;20472;-70
2022/09/10 11:45:29;;;;;;;1.20;1.10;;;19.50;99.90;;;;;;5035118;28;20466;-70
2022/09/10 11:48:04;;;;;;;1.90;1.33;;;19.50;99.90;;;;;;5023175;28;20455;-70
2022/09/10 11:50:40;;;;;;;1.00;1.00;;;19.60;99.90;;;;;;5036704;28;20973;-71
2022/09/10 11:53:12;;;;;;;1.00;1.00;;;19.60;99.90;;;;;;5026471;28;20908;-70
2022/09/10 11:55:50;;;;;;;2.30;0.83;;;19.50;99.90;;;;;;5045407;28;20458;-70
2022/09/10 11:58:29;;;;;;;1.10;1.10;;;19.50;99.90;;;;;;5047456;28;20461;-69
2022/09/10 12:01:20;;;;;;;1.00;1.00;;;19.50;99.90;;;;;;5039228;28;20454;-69
2022/09/10 12:04:21;;;;;;;1.67;0.90;;;19.50;99.90;;;;;;5040516;28;20454;-68
2022/09/10 12:07:11;;;;;;;0.90;0.90;;;19.40;99.90;;;;;;5046149;28;20458;-70
2022/09/10 12:09:46;;;;;;;2.33;1.33;;;19.40;99.90;;;;;;5049910;28;20462;-68
2022/09/10 12:12:25;;;;;;;0.80;0.80;;;19.30;99.90;;;;;;5043296;28;20992;-70
2022/09/10 12:14:51;;;;;;;1.27;1.07;;;19.30;99.90;;;;;;5035250;28;20467;-69
2022/09/10 12:17:40;;;;;;;0.83;0.83;;;19.30;99.90;;;;;;5039137;28;20485;-70
2022/09/10 12:20:14;;;;;;;1.37;0.90;;;19.40;99.90;;;;;;5043692;28;21047;-70
2022/09/10 12:22:41;;;;;;;0.90;0.90;;;19.40;99.90;;;;;;5035261;28;20531;-69
2022/09/10 12:25:17;;;;;;;0.80;0.80;;;19.30;99.90;;;;;;5036219;28;20452;-69
2022/09/10 12:27:50;;;;;;;1.10;1.10;;;19.30;99.90;;;;;;5066831;28;20544;-70
2022/09/10 12:30:32;;;;;;;0.80;0.80;;;19.20;99.90;;;;;;5038943;28;20550;-71
2022/09/10 12:33:11;;;;;;;1.10;1.00;;;19.30;99.90;;;;;;5044229;28;20572;-70
2022/09/10 12:35:36;;;;;;;1.73;1.10;;;19.30;99.90;;;;;;5038676;28;20579;-71
2022/09/10 12:38:40;;;;;;;0.93;0.80;;;19.30;99.90;;;;;;5027109;28;20470;-70
2022/09/10 12:41:33;;;;;;;0.80;0.80;;;19.30;99.90;;;;;;5039918;28;20231;-69
2022/09/10 12:44:23;;;;;;;0.90;0.90;;;19.30;99.90;;;;;;5045308;28;20460;-70
2022/09/10 12:47:15;;;;;;;0.73;0.73;;;19.30;99.90;;;;;;5045983;28;20438;-70
2022/09/10 12:49:58;;;;;;;0.87;0.87;;;19.30;99.90;;;;;;5043400;28;20818;-70
2022/09/10 12:52:48;;;;;;;0.77;0.77;;;19.40;99.90;;;;;;5035154;28;20461;-70
2022/09/10 12:55:27;;;;;;;1.13;1.13;;;19.40;99.90;;;;;;5039128;28;20486;-70
2022/09/10 12:58:15;;;;;;;1.00;1.00;;;19.50;99.90;;;;;;5048148;28;20478;-70
2022/09/10 13:00:56;;;;;;;0.90;0.90;;;19.60;99.90;;;;;;5048625;28;20468;-70
2022/09/10 13:03:28;;;;;;;0.80;0.80;;;19.70;99.90;;;;;;5040619;28;20455;-69
2022/09/10 13:05:57;;;;;;;0.70;0.70;;;19.90;99.90;;;;;;5040763;28;20478;-70
2022/09/10 13:08:25;;;;;;;1.33;1.00;;;20.00;99.90;;;;;;5043794;28;20527;-70
2022/09/10 13:10:56;;;;;;;0.60;0.60;;;20.10;99.90;;;;;;5037492;28;20443;-70
2022/09/10 13:13:41;;;;;;;0.90;0.90;;;20.10;99.90;;;;;;5042689;28;21021;-71
2022/09/10 13:16:16;;;;;;;0.80;0.80;;;20.10;99.90;;;;;;5028223;28;20538;-70
2022/09/10 13:18:42;;;;;;;0.90;0.90;;;20.10;99.90;;;;;;5033996;28;20468;-70